createdAt,value
2018-04-17T13:12:46.682Z,29.13
2018-04-17T13:15:19.018Z,27.10
2018-04-17T13:17:48.666Z,31.90
2018-04-17T13:20:20.276Z,30.13
2018-04-17T13:22:49.697Z,24.53
2018-04-17T13:25:19.694Z,23.57
2018-04-17T13:27:49.860Z,28.57
2018-04-17T13:30:21.544Z,26.67
2018-04-17T13:32:50.934Z,27.83
2018-04-17T13:37:48.997Z,23.80
2018-04-17T13:40:27.696Z,24.70
2018-04-17T13:42:57.254Z,23.63
2018-04-17T13:45:29.353Z,27.77
2018-04-17T13:47:58.675Z,22.30
2018-04-17T13:50:27.706Z,22.50
2018-04-17T13:52:57.638Z,27.03
2018-04-17T13:55:27.551Z,23.30
2018-04-17T13:57:56.742Z,25.60
2018-04-17T14:00:25.909Z,19.73
2018-04-17T14:05:24.207Z,23.60
2018-04-17T14:07:53.750Z,22.43
2018-04-17T14:10:23.353Z,23.00
2018-04-17T14:12:52.580Z,20.00
2018-04-17T14:15:23.208Z,22.53
2018-04-17T14:17:52.568Z,18.50
2018-04-17T14:20:22.677Z,21.33
2018-04-17T14:22:51.808Z,24.57
2018-04-17T14:25:25.592Z,18.17
2018-04-17T14:27:55.871Z,16.23
2018-04-17T14:30:25.788Z,19.00
2018-04-17T14:32:54.929Z,18.57
2018-04-17T14:35:24.192Z,20.90
2018-04-17T14:37:53.569Z,18.03
2018-04-17T14:40:24.558Z,18.60
2018-04-17T14:42:54.104Z,16.97
2018-04-17T14:45:24.338Z,17.10
2018-04-17T14:48:05.209Z,17.33
2018-04-17T14:50:34.703Z,18.50
2018-04-17T14:53:04.665Z,17.57
2018-04-17T14:55:33.731Z,16.30
2018-04-17T14:58:03.299Z,16.90
2018-04-17T15:00:32.758Z,18.93
2018-04-17T15:03:02.736Z,16.17
2018-04-17T15:05:32.303Z,13.37
2018-04-17T15:08:01.873Z,18.43
2018-04-17T15:10:31.485Z,17.30
2018-04-17T15:13:00.779Z,18.23
2018-04-17T15:15:30.490Z,16.50
2018-04-17T15:18:03.305Z,18.17
2018-04-17T15:20:33.606Z,13.93
2018-04-17T15:23:02.747Z,17.13
2018-04-17T15:25:31.841Z,15.83
2018-04-17T15:28:00.973Z,13.57
2018-04-17T15:30:30.502Z,16.45
2018-04-17T15:33:08.610Z,13.83
2018-04-17T15:35:38.246Z,15.17
2018-04-17T15:40:09.644Z,15.73
2018-04-17T15:42:41.376Z,13.63
2018-04-17T15:45:11.363Z,14.90
2018-04-17T15:47:42.071Z,18.00
2018-04-17T15:50:12.643Z,15.90
2018-04-17T15:52:41.928Z,16.80
2018-04-17T15:57:41.761Z,16.37
2018-04-17T16:00:12.489Z,19.00
2018-04-17T16:02:42.621Z,16.30
2018-04-17T16:05:11.734Z,27.73
2018-04-17T16:07:42.637Z,18.17
2018-04-17T16:10:12.935Z,18.43
2018-04-17T16:12:43.259Z,18.85
2018-04-17T16:15:14.900Z,18.60
2018-04-17T16:20:15.603Z,26.23
2018-04-17T16:22:44.786Z,17.90
2018-04-17T16:25:15.197Z,20.60
2018-04-17T16:27:45.597Z,19.20
2018-04-17T16:30:17.692Z,20.47
2018-04-17T16:32:47.706Z,23.43
2018-04-17T16:35:18.605Z,19.07
2018-04-17T17:40:11.662Z,17.83
2018-04-17T17:42:41.372Z,14.00
2018-04-17T17:45:10.716Z,16.93
2018-04-17T17:47:39.853Z,19.23
2018-04-17T17:50:19.458Z,18.07
2018-04-17T17:52:48.684Z,15.57
2018-04-17T17:55:18.373Z,15.43
2018-04-17T17:57:47.652Z,12.33
2018-04-17T18:00:17.644Z,14.27
2018-04-17T18:02:48.208Z,14.20
2018-04-17T18:05:18.985Z,14.47
2018-04-17T18:07:48.463Z,13.50
2018-04-17T18:10:18.976Z,13.97
2018-04-17T18:12:48.390Z,14.80
2018-04-17T18:15:17.891Z,11.63
2018-04-17T18:17:47.241Z,16.30
2018-04-17T18:20:18.545Z,14.03
2018-04-17T18:22:48.417Z,12.13
2018-04-17T18:25:18.183Z,12.67
2018-04-17T18:27:47.820Z,13.70
2018-04-17T18:30:19.376Z,15.40
2018-04-17T18:32:48.991Z,10.33
2018-04-17T18:35:20.309Z,13.85
2018-04-17T18:37:49.883Z,11.90
2018-04-17T18:40:20.340Z,12.75
2018-04-17T18:42:51.532Z,13.13
2018-04-17T18:45:21.531Z,11.13
2018-04-17T18:47:52.331Z,13.13
2018-04-17T18:50:23.013Z,12.23
2018-04-17T18:52:53.293Z,10.20
2018-04-17T19:39:16.295Z,10.73
2018-04-17T19:41:46.360Z,15.30
2018-04-17T19:44:17.816Z,12.00
2018-04-17T19:46:47.638Z,12.03
2018-04-17T19:49:16.987Z,11.17
2018-04-17T19:51:46.308Z,11.53
2018-04-17T19:54:15.849Z,15.37
2018-04-17T19:56:45.445Z,10.83
2018-04-17T19:59:15.687Z,11.73
2018-04-17T20:01:45.606Z,11.23
2018-04-17T20:04:15.273Z,11.00
2018-04-17T20:06:45.681Z,10.17
2018-04-17T20:09:16.241Z,10.60
2018-04-17T20:11:45.586Z,11.67
2018-04-17T20:14:16.464Z,9.67
2018-04-17T20:16:45.716Z,10.13
2018-04-17T20:19:15.542Z,11.13
2018-04-17T20:21:44.737Z,10.40
2018-04-17T20:24:14.873Z,11.70
2018-04-17T20:26:45.240Z,10.20
2018-04-17T20:29:15.731Z,12.07
2018-04-17T20:31:45.325Z,9.20
2018-04-17T20:34:15.353Z,11.67
2018-04-17T20:36:45.580Z,9.67
2018-04-17T20:39:16.343Z,9.57
2018-04-17T20:41:46.290Z,9.67
2018-04-17T20:44:15.949Z,12.13
2018-04-17T20:46:46.542Z,10.05
2018-04-17T20:49:16.395Z,10.57
2018-04-17T20:51:46.546Z,13.27
2018-04-17T20:54:16.342Z,7.83
2018-04-17T20:56:45.938Z,8.03
2018-04-17T20:59:17.294Z,10.00
2018-04-17T21:01:50.054Z,9.73
2018-04-17T21:04:20.486Z,10.93
2018-04-17T21:06:50.404Z,9.77
2018-04-17T21:09:28.567Z,9.93
2018-04-17T21:12:01.784Z,9.47
2018-04-17T21:14:37.145Z,7.67
2018-04-17T21:17:10.068Z,8.13
2018-04-17T21:19:39.881Z,9.87
2018-04-17T21:22:13.506Z,7.07
2018-04-17T21:24:42.947Z,8.10
2018-04-17T21:34:47.526Z,9.27
2018-04-17T21:37:18.755Z,7.43
2018-04-17T21:39:48.733Z,7.03
2018-04-17T21:42:18.467Z,7.33
2018-04-17T21:44:47.834Z,7.50
2018-04-17T21:47:17.907Z,6.50
2018-04-17T21:52:19.635Z,6.57
2018-04-17T21:54:49.914Z,7.43
2018-04-17T21:59:48.438Z,8.07
2018-04-17T22:02:19.776Z,6.23
2018-04-17T22:04:48.888Z,6.80
2018-04-17T22:07:19.667Z,6.33
2018-04-17T22:09:48.851Z,5.90
2018-04-17T22:12:18.471Z,7.03
2018-04-17T22:14:50.472Z,5.63
2018-04-17T22:17:22.332Z,6.43
2018-04-17T22:22:21.772Z,5.50
